createdAt,value
2018-07-14T00:00:32.595Z,10.10
2018-07-14T00:01:32.750Z,11.90
2018-07-14T00:02:32.932Z,9.10
2018-07-14T00:03:33.106Z,8.20
2018-07-14T00:04:33.287Z,8.70
2018-07-14T00:05:33.496Z,10.60
2018-07-14T00:06:33.635Z,8.90
2018-07-14T00:07:33.818Z,8.50
2018-07-14T00:08:33.984Z,8.60
2018-07-14T00:09:34.180Z,8.80
2018-07-14T00:10:34.337Z,8.20
2018-07-14T00:11:34.526Z,9.00
2018-07-14T00:12:34.680Z,9.30
2018-07-14T00:13:34.838Z,9.20
2018-07-14T00:14:35.017Z,8.50
2018-07-14T00:15:35.202Z,9.20
2018-07-14T00:16:35.371Z,9.10
2018-07-14T00:17:35.542Z,8.20
2018-07-14T00:18:35.724Z,8.10
2018-07-14T00:19:36.182Z,10.30
2018-07-14T00:20:36.078Z,10.70
2018-07-14T00:21:36.255Z,8.50
2018-07-14T00:22:36.426Z,7.70
2018-07-14T00:23:36.613Z,8.10
2018-07-14T00:24:36.781Z,8.70
2018-07-14T00:25:36.953Z,8.10
2018-07-14T00:26:37.111Z,9.40
2018-07-14T00:27:37.295Z,10.10
2018-07-14T00:28:37.459Z,9.50
2018-07-14T00:29:37.902Z,9.20
2018-07-14T00:30:37.829Z,9.50
2018-07-14T00:31:38.014Z,9.00
2018-07-14T00:32:38.179Z,8.70
2018-07-14T00:33:38.357Z,9.20
2018-07-14T00:34:38.525Z,9.10
2018-07-14T00:35:38.699Z,8.70
2018-07-14T00:36:38.877Z,9.50
2018-07-14T00:37:39.063Z,10.60
2018-07-14T00:38:39.239Z,9.60
2018-07-14T00:39:39.419Z,9.20
2018-07-14T00:40:39.597Z,9.50
2018-07-14T00:41:39.771Z,7.80
2018-07-14T00:42:39.962Z,8.90
2018-07-14T00:43:40.135Z,8.40
2018-07-14T00:44:40.311Z,9.30
2018-07-14T00:45:40.492Z,9.20
2018-07-14T00:46:40.660Z,10.00
2018-07-14T00:47:40.852Z,10.80
2018-07-14T00:48:41.002Z,7.30
2018-07-14T00:49:41.171Z,9.20
2018-07-14T00:50:41.341Z,10.20
2018-07-14T00:51:41.505Z,8.80
2018-07-14T00:52:41.690Z,10.10
2018-07-14T00:53:41.892Z,11.00
2018-07-14T00:54:42.068Z,9.60
2018-07-14T00:55:42.240Z,9.70
2018-07-14T00:56:42.413Z,9.60
2018-07-14T00:57:42.588Z,9.80
2018-07-14T00:58:42.752Z,10.00
2018-07-14T00:59:42.921Z,11.00
2018-07-14T01:00:43.090Z,10.10
2018-07-14T01:01:43.278Z,8.80
2018-07-14T01:02:43.459Z,10.20
2018-07-14T01:03:43.617Z,9.70
2018-07-14T01:04:43.785Z,11.80
2018-07-14T01:05:43.964Z,9.00
2018-07-14T01:06:44.133Z,9.80
2018-07-14T01:07:44.295Z,10.80
2018-07-14T01:08:44.465Z,10.00
2018-07-14T01:09:44.634Z,11.10
2018-07-14T01:10:44.842Z,10.60
2018-07-14T01:11:44.998Z,10.70
2018-07-14T01:12:45.160Z,12.20
2018-07-14T01:13:45.320Z,11.90
2018-07-14T01:14:45.499Z,11.20
2018-07-14T01:15:45.678Z,9.90
2018-07-14T01:16:45.865Z,10.50
2018-07-14T01:17:46.106Z,11.70
2018-07-14T01:18:46.229Z,10.50
2018-07-14T01:19:46.647Z,10.80
2018-07-14T01:20:46.582Z,10.10
2018-07-14T01:21:46.756Z,10.30
2018-07-14T01:22:46.938Z,11.30
2018-07-14T01:23:47.114Z,10.70
2018-07-14T01:24:47.285Z,10.40
2018-07-14T01:25:47.471Z,12.90
2018-07-14T01:26:47.645Z,13.20
2018-07-14T01:27:47.823Z,12.80
2018-07-14T01:28:48.008Z,14.20
2018-07-14T01:29:48.191Z,15.90
2018-07-14T01:30:48.366Z,15.10
2018-07-14T01:31:48.558Z,17.40
2018-07-14T01:32:48.721Z,18.10
2018-07-14T01:33:48.897Z,19.50
2018-07-14T01:34:49.074Z,16.50
2018-07-14T01:35:49.253Z,15.20
2018-07-14T01:36:49.418Z,14.20
2018-07-14T01:37:49.588Z,15.20
2018-07-14T01:38:49.767Z,12.80
2018-07-14T01:39:49.952Z,13.00
2018-07-14T01:40:50.134Z,11.60
2018-07-14T01:41:50.310Z,11.00
2018-07-14T01:42:50.727Z,11.50
2018-07-14T01:43:50.660Z,13.10
2018-07-14T01:44:50.819Z,10.10
2018-07-14T01:45:50.989Z,10.20
2018-07-14T01:46:51.168Z,10.90
2018-07-14T01:47:51.346Z,11.80
2018-07-14T01:48:51.516Z,10.90
2018-07-14T01:49:51.700Z,12.30
2018-07-14T01:50:51.853Z,10.90
2018-07-14T01:51:52.025Z,12.00
2018-07-14T01:52:52.191Z,12.90
2018-07-14T01:53:52.372Z,14.90
2018-07-14T01:54:52.547Z,13.40
2018-07-14T01:55:52.734Z,14.40
2018-07-14T01:56:52.909Z,13.00
2018-07-14T01:57:53.110Z,10.90
2018-07-14T01:58:53.244Z,13.20
2018-07-14T01:59:53.418Z,11.00
2018-07-14T02:00:53.594Z,11.70
2018-07-14T02:01:53.779Z,12.80
2018-07-14T02:02:53.946Z,11.40
2018-07-14T02:03:54.145Z,11.30
2018-07-14T02:04:54.331Z,10.80
2018-07-14T02:05:54.506Z,9.30
2018-07-14T02:06:54.686Z,10.30
2018-07-14T02:07:54.862Z,10.70
2018-07-14T02:08:55.042Z,10.60
2018-07-14T02:09:55.213Z,10.90
2018-07-14T02:10:55.390Z,11.00
2018-07-14T02:11:55.572Z,10.90
2018-07-14T02:12:55.740Z,8.90
2018-07-14T02:13:55.926Z,11.10
2018-07-14T02:14:56.106Z,9.10
2018-07-14T02:15:56.265Z,12.40
2018-07-14T02:16:56.441Z,11.10
2018-07-14T02:17:56.610Z,9.90
2018-07-14T02:18:56.772Z,9.90
2018-07-14T02:19:56.941Z,10.00
2018-07-14T02:20:57.128Z,10.10
2018-07-14T02:21:57.277Z,11.20
2018-07-14T02:22:57.442Z,11.00
2018-07-14T02:23:57.632Z,11.60
2018-07-14T02:24:57.776Z,12.80
2018-07-14T02:25:57.959Z,13.20
2018-07-14T02:26:58.124Z,9.20
2018-07-14T02:27:58.300Z,12.60
2018-07-14T02:28:58.462Z,10.70
2018-07-14T02:29:58.638Z,9.90
2018-07-14T02:30:58.809Z,10.30
2018-07-14T02:31:58.980Z,11.80
2018-07-14T02:32:59.161Z,10.10
2018-07-14T02:33:59.335Z,10.70
2018-07-14T02:34:59.508Z,9.70
2018-07-14T02:35:59.700Z,10.90
2018-07-14T02:36:59.860Z,9.50
2018-07-14T02:38:00.040Z,11.70
2018-07-14T02:39:00.208Z,10.90
2018-07-14T02:40:00.383Z,10.60
2018-07-14T02:41:00.560Z,9.50
2018-07-14T02:42:00.735Z,10.90
2018-07-14T02:43:00.904Z,10.70
2018-07-14T02:44:01.075Z,10.70
2018-07-14T02:45:01.233Z,10.20
2018-07-14T02:46:01.393Z,11.20
2018-07-14T02:47:01.574Z,11.90
2018-07-14T02:48:01.759Z,11.10
2018-07-14T02:49:01.936Z,11.60
2018-07-14T02:50:02.120Z,11.40
2018-07-14T02:51:02.283Z,10.90
2018-07-14T02:52:02.447Z,12.60
2018-07-14T02:53:02.611Z,10.20
2018-07-14T02:54:02.777Z,10.10
2018-07-14T02:55:02.959Z,10.70
2018-07-14T02:56:03.139Z,9.10
2018-07-14T02:57:03.318Z,9.30
2018-07-14T02:58:03.522Z,9.10
2018-07-14T02:59:03.667Z,8.40
2018-07-14T03:00:03.849Z,11.30
2018-07-14T03:01:04.008Z,9.80
2018-07-14T03:02:04.195Z,9.00
2018-07-14T03:03:04.370Z,10.40
2018-07-14T03:04:04.565Z,9.00
2018-07-14T03:05:04.733Z,8.90
2018-07-14T03:06:04.900Z,9.70
2018-07-14T03:07:05.060Z,11.50
2018-07-14T03:08:05.226Z,10.10
2018-07-14T03:09:05.403Z,10.60
2018-07-14T03:10:05.583Z,9.30
2018-07-14T03:11:05.752Z,10.40
2018-07-14T03:12:05.921Z,11.20
2018-07-14T03:13:06.088Z,10.10
2018-07-14T03:14:06.244Z,9.40
2018-07-14T03:15:06.437Z,10.70
2018-07-14T03:16:06.839Z,10.60
2018-07-14T03:17:06.779Z,9.40
2018-07-14T03:18:06.947Z,9.80
2018-07-14T03:19:07.107Z,11.70
2018-07-14T03:20:07.286Z,9.60
2018-07-14T03:21:07.491Z,9.00
2018-07-14T03:22:07.680Z,9.20
2018-07-14T03:23:07.829Z,9.90
2018-07-14T03:24:08.002Z,9.00
2018-07-14T03:25:08.171Z,10.20
2018-07-14T03:26:08.599Z,9.50
2018-07-14T03:27:08.521Z,9.20
2018-07-14T03:28:08.695Z,10.30
2018-07-14T03:29:08.874Z,10.10
2018-07-14T03:30:09.095Z,10.50
2018-07-14T03:31:09.220Z,8.50
2018-07-14T03:32:09.402Z,9.40
2018-07-14T03:33:09.603Z,9.70
2018-07-14T03:34:09.741Z,12.00
2018-07-14T03:35:09.917Z,10.30
2018-07-14T03:36:10.337Z,9.30
2018-07-14T03:37:10.279Z,9.90
2018-07-14T03:38:10.450Z,10.20
2018-07-14T03:39:10.630Z,9.20
2018-07-14T03:40:10.808Z,9.50
2018-07-14T03:41:10.989Z,9.80
2018-07-14T03:42:11.142Z,9.90
2018-07-14T03:43:11.320Z,9.20
2018-07-14T03:44:11.499Z,9.10
2018-07-14T03:45:11.676Z,9.80
2018-07-14T03:46:12.086Z,9.80
2018-07-14T03:47:12.035Z,9.80
2018-07-14T03:48:12.189Z,9.20
2018-07-14T03:49:12.368Z,10.60
2018-07-14T03:50:12.542Z,9.80
2018-07-14T03:51:12.717Z,10.20
2018-07-14T03:52:12.889Z,9.60
2018-07-14T03:53:13.075Z,9.90
2018-07-14T03:54:13.256Z,9.10
2018-07-14T03:55:13.438Z,10.90
2018-07-14T03:56:13.600Z,9.30
2018-07-14T03:57:13.781Z,8.60
2018-07-14T03:58:13.947Z,10.20
2018-07-14T03:59:14.131Z,8.60
2018-07-14T04:00:14.294Z,9.10
2018-07-14T04:01:14.486Z,9.90
2018-07-14T04:02:14.653Z,11.30
2018-07-14T04:03:14.818Z,9.50
2018-07-14T04:04:14.980Z,9.40
2018-07-14T04:05:15.160Z,10.20
2018-07-14T04:06:15.328Z,11.60
2018-07-14T04:07:15.501Z,9.20
2018-07-14T04:08:15.679Z,12.00
2018-07-14T04:09:15.889Z,10.00
2018-07-14T04:10:16.025Z,10.20
2018-07-14T04:11:16.184Z,11.60
2018-07-14T04:12:16.372Z,9.80
2018-07-14T04:13:16.530Z,9.10
2018-07-14T04:14:16.704Z,9.00
2018-07-14T04:15:16.888Z,10.10
2018-07-14T04:16:17.072Z,9.80
2018-07-14T04:17:17.256Z,9.60
2018-07-14T04:18:17.425Z,11.60
2018-07-14T04:19:17.594Z,9.40
2018-07-14T04:20:17.769Z,10.60
2018-07-14T04:21:17.935Z,8.90
2018-07-14T04:22:18.122Z,9.20
2018-07-14T04:23:18.305Z,9.20
2018-07-14T04:24:18.501Z,11.00
2018-07-14T04:25:18.657Z,9.70
2018-07-14T04:26:18.820Z,9.70
2018-07-14T04:27:18.994Z,9.50
2018-07-14T04:28:19.173Z,9.00
2018-07-14T04:29:19.342Z,9.70
2018-07-14T04:30:19.510Z,9.50
2018-07-14T04:31:19.679Z,8.80
2018-07-14T04:32:19.867Z,9.10
2018-07-14T04:33:20.032Z,8.70
2018-07-14T04:34:20.207Z,8.20
2018-07-14T04:35:20.375Z,6.70
2018-07-14T04:36:20.564Z,6.30
2018-07-14T04:37:20.719Z,7.10
2018-07-14T04:38:20.895Z,7.20
2018-07-14T04:39:21.069Z,6.20
2018-07-14T04:40:21.259Z,5.80
2018-07-14T04:41:21.424Z,6.60
2018-07-14T04:42:21.663Z,6.30
2018-07-14T04:43:21.798Z,6.00
2018-07-14T04:44:21.984Z,6.60
2018-07-14T04:45:22.159Z,6.10
2018-07-14T04:46:22.397Z,6.20
2018-07-14T04:47:22.525Z,5.70
2018-07-14T04:48:22.711Z,6.50
2018-07-14T04:49:22.897Z,5.70
2018-07-14T04:50:23.082Z,5.90
2018-07-14T04:51:23.256Z,5.50
2018-07-14T04:52:23.414Z,5.20
2018-07-14T04:53:23.597Z,5.00
2018-07-14T04:54:23.778Z,5.20
2018-07-14T04:55:23.972Z,5.00
2018-07-14T04:56:24.156Z,5.00
2018-07-14T04:57:24.332Z,6.30
2018-07-14T04:58:24.518Z,5.20
2018-07-14T04:59:24.692Z,5.70
2018-07-14T05:00:24.868Z,4.90
2018-07-14T05:01:25.055Z,5.30
2018-07-14T05:02:25.268Z,5.00
2018-07-14T05:03:25.419Z,4.80
2018-07-14T05:04:25.612Z,5.40
2018-07-14T05:05:25.785Z,5.90
2018-07-14T05:06:26.082Z,6.00
2018-07-14T05:07:26.153Z,5.90
2018-07-14T05:08:26.348Z,5.50
2018-07-14T05:09:26.540Z,5.30
2018-07-14T05:10:26.715Z,5.00
2018-07-14T05:11:26.900Z,7.10
2018-07-14T05:12:27.092Z,5.30
2018-07-14T05:13:27.282Z,6.30
2018-07-14T05:14:27.444Z,6.10
2018-07-14T05:15:27.614Z,6.10
2018-07-14T05:16:27.797Z,4.70
2018-07-14T05:17:28.007Z,5.20
2018-07-14T05:18:28.141Z,4.80
2018-07-14T05:19:28.354Z,4.80
2018-07-14T05:20:28.506Z,6.10
2018-07-14T05:21:28.789Z,7.90
2018-07-14T05:22:28.872Z,6.50
2018-07-14T05:23:29.043Z,6.30
2018-07-14T05:24:29.226Z,7.80
2018-07-14T05:25:29.407Z,5.20
2018-07-14T05:26:29.579Z,9.80
2018-07-14T05:27:29.770Z,5.90
2018-07-14T05:28:29.970Z,6.80
2018-07-14T05:29:30.113Z,6.20
2018-07-14T05:30:30.547Z,5.30
2018-07-14T05:31:30.728Z,4.90
2018-07-14T05:32:30.675Z,4.80
2018-07-14T05:33:30.848Z,5.60
2018-07-14T05:34:31.041Z,5.90
2018-07-14T05:35:31.236Z,6.40
2018-07-14T05:36:31.407Z,4.90
2018-07-14T05:37:31.610Z,4.50
2018-07-14T05:38:31.775Z,4.40
2018-07-14T05:39:31.961Z,5.10
2018-07-14T05:40:32.204Z,5.20
2018-07-14T05:41:32.339Z,4.70
2018-07-14T05:42:32.541Z,5.00
2018-07-14T05:43:32.700Z,6.30
2018-07-14T05:44:32.891Z,5.90
2018-07-14T05:45:33.079Z,4.60
2018-07-14T05:46:33.266Z,4.20
2018-07-14T05:47:33.456Z,4.90
2018-07-14T05:48:33.662Z,4.80
2018-07-14T05:49:33.820Z,4.40
2018-07-14T05:50:33.994Z,5.30
2018-07-14T05:51:34.200Z,4.40
2018-07-14T05:52:34.389Z,5.20
2018-07-14T05:53:34.564Z,5.30
2018-07-14T05:54:34.748Z,4.90
2018-07-14T05:55:34.933Z,4.50
2018-07-14T05:56:35.113Z,5.20
2018-07-14T05:57:35.291Z,5.40
2018-07-14T05:58:35.482Z,5.50
2018-07-14T05:59:35.676Z,5.40
2018-07-14T06:00:35.840Z,4.80
2018-07-14T06:01:36.006Z,4.50
2018-07-14T06:02:36.209Z,4.40
2018-07-14T06:03:36.378Z,8.40
2018-07-14T06:04:36.582Z,4.60
2018-07-14T06:05:36.751Z,4.40
2018-07-14T06:06:36.925Z,4.60
2018-07-14T06:07:37.104Z,4.80
2018-07-14T06:08:37.281Z,4.30
2018-07-14T06:09:37.467Z,4.70
2018-07-14T06:10:37.655Z,4.50
2018-07-14T06:11:37.846Z,4.70
2018-07-14T06:12:38.023Z,5.00
2018-07-14T06:13:38.232Z,5.20
2018-07-14T06:14:38.395Z,5.00
2018-07-14T06:15:38.572Z,4.90
2018-07-14T06:16:38.765Z,4.60
2018-07-14T06:17:38.953Z,6.40
2018-07-14T06:18:39.130Z,5.20
2018-07-14T06:19:39.378Z,5.50
2018-07-14T06:20:39.527Z,4.40
2018-07-14T06:21:39.687Z,6.40
2018-07-14T06:22:39.861Z,5.00
2018-07-14T06:23:40.059Z,4.30
2018-07-14T06:24:40.258Z,6.20
2018-07-14T06:25:40.705Z,5.40
2018-07-14T06:26:40.609Z,4.50
2018-07-14T06:27:40.794Z,4.80
2018-07-14T06:28:40.975Z,5.40
2018-07-14T06:29:41.158Z,4.60
2018-07-14T06:30:41.342Z,5.30
2018-07-14T06:31:41.542Z,4.70
2018-07-14T06:32:41.730Z,8.20
2018-07-14T06:33:41.888Z,5.40
2018-07-14T06:34:42.069Z,6.10
2018-07-14T06:36:42.436Z,5.70
2018-07-14T06:37:42.625Z,4.80
2018-07-14T06:38:42.838Z,6.00
2018-07-14T06:39:43.015Z,4.50
2018-07-14T06:40:43.212Z,4.70
2018-07-14T06:41:43.405Z,4.90
2018-07-14T06:42:43.592Z,4.70
2018-07-14T06:43:43.754Z,4.80
2018-07-14T06:44:43.967Z,4.70
2018-07-14T06:45:44.150Z,5.40
2018-07-14T06:46:44.295Z,5.50
2018-07-14T06:47:44.482Z,4.80
2018-07-14T06:48:44.652Z,5.40
2018-07-14T06:49:44.845Z,5.70
2018-07-14T06:50:45.022Z,5.90
2018-07-14T06:51:45.219Z,4.20
2018-07-14T06:52:45.396Z,4.90
2018-07-14T06:53:45.572Z,4.90
2018-07-14T06:54:45.773Z,5.30
2018-07-14T06:55:45.974Z,5.70
2018-07-14T06:56:46.142Z,5.20
2018-07-14T06:57:46.331Z,5.10
2018-07-14T06:58:46.503Z,5.30
2018-07-14T06:59:46.705Z,5.60
2018-07-14T07:00:46.856Z,5.30
2018-07-14T07:01:47.067Z,5.10
2018-07-14T07:02:47.270Z,5.00
2018-07-14T07:03:47.427Z,6.80
2018-07-14T07:04:47.623Z,5.50
2018-07-14T07:05:47.813Z,6.00
2018-07-14T07:06:47.997Z,5.60
2018-07-14T07:07:48.190Z,5.30
2018-07-14T07:08:48.371Z,5.50
2018-07-14T07:09:48.563Z,6.70
2018-07-14T07:10:48.743Z,6.00
2018-07-14T07:11:48.925Z,6.40
2018-07-14T07:12:49.125Z,5.40
2018-07-14T07:13:49.371Z,6.30
2018-07-14T07:14:49.508Z,5.70
2018-07-14T07:15:49.713Z,5.70
2018-07-14T07:16:49.869Z,5.00
2018-07-14T07:17:50.053Z,5.20
2018-07-14T07:18:50.255Z,6.00
2018-07-14T07:19:50.447Z,6.40
2018-07-14T07:20:50.640Z,4.20
2018-07-14T07:21:50.794Z,5.40
2018-07-14T07:22:51.976Z,4.20
2018-07-14T07:23:51.157Z,11.10
2018-07-14T07:24:51.351Z,7.40
2018-07-14T07:25:51.524Z,3.60
2018-07-14T07:26:51.708Z,5.00
2018-07-14T07:27:51.898Z,4.50
2018-07-14T07:28:52.152Z,3.80
2018-07-14T07:29:52.237Z,3.80
2018-07-14T07:30:52.440Z,4.80
2018-07-14T07:31:52.596Z,3.70
2018-07-14T07:32:52.801Z,4.60
2018-07-14T07:33:53.058Z,3.80
2018-07-14T07:34:53.181Z,3.00
2018-07-14T07:35:53.360Z,2.60
2018-07-14T07:36:53.537Z,3.80
2018-07-14T07:37:53.724Z,4.20
2018-07-14T07:38:53.908Z,3.80
2018-07-14T07:39:54.083Z,4.10
2018-07-14T07:40:54.275Z,3.10
2018-07-14T07:41:54.463Z,4.40
2018-07-14T07:42:54.641Z,3.20
2018-07-14T07:43:54.811Z,3.00
2018-07-14T07:44:55.010Z,2.90
2018-07-14T07:45:55.197Z,2.50
2018-07-14T07:46:55.365Z,3.60
2018-07-14T07:47:55.547Z,2.50
2018-07-14T07:48:55.743Z,3.50
2018-07-14T07:49:55.921Z,3.40
2018-07-14T07:50:56.090Z,3.10
2018-07-14T07:51:56.270Z,3.00
2018-07-14T07:52:56.468Z,2.50
2018-07-14T07:53:56.643Z,4.30
2018-07-14T07:54:56.831Z,3.50
2018-07-14T07:55:56.996Z,3.20
2018-07-14T07:56:57.167Z,2.50
2018-07-14T07:57:57.367Z,2.90
2018-07-14T07:58:57.530Z,2.90
2018-07-14T07:59:57.705Z,4.20
2018-07-14T08:00:57.894Z,3.80
2018-07-14T08:01:58.051Z,2.60
2018-07-14T08:02:58.222Z,3.10
2018-07-14T08:03:58.400Z,3.40
2018-07-14T08:04:58.597Z,2.90
2018-07-14T08:05:58.764Z,2.60
2018-07-14T08:06:58.974Z,3.60
2018-07-14T08:07:59.160Z,3.00
2018-07-14T08:08:59.363Z,3.10
2018-07-14T08:09:59.509Z,3.20
2018-07-14T08:10:59.731Z,3.00
2018-07-14T08:11:59.932Z,3.10
2018-07-14T08:13:00.104Z,3.10
2018-07-14T08:14:00.277Z,3.40
2018-07-14T08:15:00.482Z,3.10
2018-07-14T08:16:00.657Z,2.50
2018-07-14T08:17:00.837Z,3.10
2018-07-14T08:18:01.020Z,2.70
2018-07-14T08:19:01.196Z,3.60
2018-07-14T08:20:01.389Z,3.30
2018-07-14T08:21:01.567Z,2.60
2018-07-14T08:22:01.725Z,5.90
2018-07-14T08:23:01.980Z,4.80
2018-07-14T08:24:02.173Z,2.30
2018-07-14T08:25:02.295Z,3.30
2018-07-14T08:26:02.477Z,3.50
2018-07-14T08:27:02.670Z,3.10
2018-07-14T08:28:02.848Z,3.30
2018-07-14T08:29:03.026Z,3.00
2018-07-14T08:30:03.224Z,2.50
2018-07-14T08:31:03.398Z,3.00
2018-07-14T08:32:03.614Z,3.30
2018-07-14T08:33:03.767Z,2.40
2018-07-14T08:34:03.954Z,2.40
2018-07-14T08:35:04.117Z,3.00
2018-07-14T08:36:04.331Z,2.30
2018-07-14T08:37:04.478Z,1.70
2018-07-14T08:38:04.728Z,2.10
2018-07-14T08:39:04.829Z,1.80
2018-07-14T08:40:05.005Z,1.70
2018-07-14T08:41:05.208Z,2.20
2018-07-14T08:42:05.390Z,2.30
2018-07-14T08:43:05.543Z,2.10
2018-07-14T08:44:05.750Z,2.00
2018-07-14T08:45:05.921Z,2.90
2018-07-14T08:46:06.103Z,3.00
2018-07-14T08:47:06.338Z,1.90
2018-07-14T08:48:06.535Z,2.20
2018-07-14T08:49:06.718Z,2.00
2018-07-14T08:50:06.903Z,1.60
2018-07-14T08:51:07.133Z,3.10
2018-07-14T08:52:07.251Z,2.40
2018-07-14T08:53:07.449Z,1.90
2018-07-14T08:54:07.628Z,2.00
2018-07-14T08:55:07.813Z,2.10
2018-07-14T08:56:07.999Z,2.50
2018-07-14T08:57:08.457Z,2.40
2018-07-14T08:58:08.425Z,2.50
2018-07-14T08:59:08.547Z,2.00
2018-07-14T09:00:08.768Z,2.00
2018-07-14T09:01:08.902Z,1.80
2018-07-14T09:02:09.093Z,1.90
2018-07-14T09:03:09.524Z,1.80
2018-07-14T09:04:09.490Z,2.10
2018-07-14T09:05:09.648Z,2.60
2018-07-14T09:06:09.840Z,3.40
2018-07-14T09:07:10.128Z,2.30
2018-07-14T09:08:10.220Z,4.10
2018-07-14T09:09:10.389Z,3.20
2018-07-14T09:10:10.560Z,2.90
2018-07-14T09:11:10.743Z,2.60
2018-07-14T09:12:11.203Z,3.10
2018-07-14T09:13:12.096Z,2.80
2018-07-14T09:14:11.417Z,5.30
2018-07-14T09:15:12.287Z,4.00
2018-07-14T09:16:11.767Z,4.40
2018-07-14T09:17:11.943Z,4.40
2018-07-14T09:18:12.114Z,5.00
2018-07-14T09:19:12.312Z,5.10
2018-07-14T09:20:12.499Z,3.50
2018-07-14T09:21:12.692Z,4.20
2018-07-14T09:22:12.876Z,4.10
2018-07-14T09:23:13.056Z,2.10
2018-07-14T09:24:13.253Z,2.40
2018-07-14T09:25:13.437Z,2.10
2018-07-14T09:26:13.650Z,4.10
2018-07-14T09:27:13.768Z,3.60
2018-07-14T09:28:13.957Z,3.10
2018-07-14T09:29:14.123Z,4.10
2018-07-14T09:30:14.314Z,2.20
2018-07-14T09:31:14.497Z,4.10
2018-07-14T09:32:14.655Z,3.00
2018-07-14T09:33:14.855Z,3.70
2018-07-14T09:34:15.028Z,2.50
2018-07-14T09:35:15.226Z,3.20
2018-07-14T09:36:15.412Z,4.80
2018-07-14T09:37:15.639Z,4.20
2018-07-14T09:38:15.788Z,4.00
2018-07-14T09:39:15.960Z,3.70
2018-07-14T09:40:16.149Z,2.90
2018-07-14T09:41:16.339Z,3.00
2018-07-14T09:42:16.524Z,2.60
2018-07-14T09:43:16.702Z,3.90
2018-07-14T09:44:16.924Z,3.30
2018-07-14T09:45:17.083Z,3.10
2018-07-14T09:46:17.236Z,2.30
2018-07-14T09:47:17.419Z,4.10
2018-07-14T09:48:17.601Z,2.90
2018-07-14T09:49:17.770Z,4.90
2018-07-14T09:50:17.950Z,4.20
2018-07-14T09:51:18.136Z,2.30
2018-07-14T09:52:18.312Z,2.70
2018-07-14T09:53:18.491Z,4.80
2018-07-14T09:54:18.670Z,3.30
2018-07-14T09:55:19.025Z,4.70
2018-07-14T09:56:19.070Z,2.60
2018-07-14T09:57:19.268Z,3.50
2018-07-14T09:58:19.446Z,3.00
2018-07-14T09:59:19.626Z,3.80
2018-07-14T10:00:19.806Z,3.70
2018-07-14T10:01:19.987Z,5.60
2018-07-14T10:03:20.387Z,2.30
2018-07-14T10:04:20.507Z,3.50
2018-07-14T10:05:20.692Z,3.80
2018-07-14T10:06:20.896Z,2.80
2018-07-14T10:07:21.065Z,3.00
2018-07-14T10:08:21.290Z,5.40
2018-07-14T10:09:21.438Z,4.90
2018-07-14T10:10:21.632Z,3.60
2018-07-14T10:11:21.819Z,3.20
2018-07-14T10:12:22.001Z,11.10
2018-07-14T10:13:22.200Z,22.20
2018-07-14T10:14:22.397Z,7.30
2018-07-14T10:15:22.567Z,4.30
2018-07-14T10:16:22.737Z,6.70
2018-07-14T10:17:22.982Z,7.20
2018-07-14T10:18:23.117Z,25.60
2018-07-14T10:19:23.317Z,8.20
2018-07-14T10:20:23.528Z,14.80
2018-07-14T10:21:23.659Z,20.90
2018-07-14T10:22:23.945Z,21.50
2018-07-14T10:23:24.039Z,7.90
2018-07-14T10:24:24.224Z,5.60
2018-07-14T10:25:24.527Z,8.00
2018-07-14T10:26:24.604Z,4.90
2018-07-14T10:27:24.777Z,3.30
2018-07-14T10:28:24.960Z,3.10
2018-07-14T10:29:25.145Z,3.10
2018-07-14T10:30:25.335Z,3.20
2018-07-14T10:31:25.507Z,20.80
2018-07-14T10:32:25.680Z,12.10
2018-07-14T10:33:25.874Z,10.80
2018-07-14T10:34:26.053Z,2.90
2018-07-14T10:35:26.232Z,18.60
2018-07-14T10:36:26.410Z,4.30
2018-07-14T10:37:26.583Z,3.80
2018-07-14T10:38:26.796Z,4.30
2018-07-14T10:39:27.023Z,5.70
2018-07-14T10:40:27.181Z,5.30
2018-07-14T10:41:27.379Z,12.10
2018-07-14T10:42:27.600Z,3.90
2018-07-14T10:43:27.716Z,2.50
2018-07-14T10:44:27.909Z,6.50
2018-07-14T10:45:28.092Z,8.80
2018-07-14T10:46:28.244Z,4.90
2018-07-14T10:47:28.430Z,4.20
2018-07-14T10:48:28.613Z,3.60
2018-07-14T10:49:28.796Z,6.00
2018-07-14T10:50:28.996Z,4.20
2018-07-14T10:51:29.244Z,6.00
2018-07-14T10:52:29.356Z,4.30
2018-07-14T10:53:29.602Z,35.90
2018-07-14T10:54:29.735Z,5.10
2018-07-14T10:55:29.917Z,5.30
2018-07-14T10:56:30.157Z,5.00
2018-07-14T10:57:30.307Z,6.70
2018-07-14T10:58:30.486Z,8.20
2018-07-14T10:59:30.681Z,4.70
2018-07-14T11:00:30.883Z,17.90
2018-07-14T11:01:31.047Z,8.70
2018-07-14T11:02:31.210Z,10.70
2018-07-14T11:03:31.401Z,6.00
2018-07-14T11:04:31.685Z,5.10
2018-07-14T11:05:31.762Z,5.20
2018-07-14T11:06:31.997Z,7.40
2018-07-14T11:07:32.129Z,3.80
2018-07-14T11:08:32.343Z,3.30
2018-07-14T11:09:32.488Z,4.20
2018-07-14T11:10:32.706Z,3.10
2018-07-14T11:11:32.830Z,4.20
2018-07-14T11:12:33.024Z,3.60
2018-07-14T11:13:33.198Z,3.10
2018-07-14T11:14:33.410Z,2.90
2018-07-14T11:15:33.611Z,4.10
2018-07-14T11:16:33.781Z,3.30
2018-07-14T11:17:34.222Z,4.80
2018-07-14T11:18:34.163Z,4.80
2018-07-14T11:19:34.326Z,5.00
2018-07-14T11:20:34.496Z,8.10
2018-07-14T11:21:34.659Z,7.20
2018-07-14T11:22:34.842Z,3.50
2018-07-14T11:23:35.051Z,5.00
2018-07-14T11:24:35.206Z,3.90
2018-07-14T11:25:35.388Z,4.60
2018-07-14T11:26:35.566Z,7.30
2018-07-14T11:27:35.755Z,4.30
2018-07-14T11:28:35.959Z,4.80
2018-07-14T11:29:36.129Z,2.80
2018-07-14T11:30:36.322Z,2.90
2018-07-14T11:32:36.666Z,2.90
2018-07-14T11:33:36.858Z,3.40
2018-07-14T11:34:37.129Z,5.00
2018-07-14T11:35:37.204Z,5.10
2018-07-14T11:36:37.396Z,5.70
2018-07-14T11:37:37.664Z,6.70
2018-07-14T11:38:37.785Z,4.00
2018-07-14T11:39:37.992Z,3.40
2018-07-14T11:40:38.171Z,4.80
2018-07-14T11:41:38.369Z,7.60
2018-07-14T11:42:38.534Z,22.90
2018-07-14T11:43:38.749Z,6.20
2018-07-14T11:44:38.874Z,4.40
2018-07-14T11:45:39.073Z,7.40
2018-07-14T11:46:39.272Z,4.20
2018-07-14T11:47:39.476Z,8.00
2018-07-14T11:48:39.709Z,4.40
2018-07-14T11:49:39.790Z,5.60
2018-07-14T11:50:40.018Z,6.00
2018-07-14T11:51:40.148Z,5.90
2018-07-14T11:52:40.355Z,7.50
2018-07-14T11:53:40.503Z,15.30
2018-07-14T11:54:40.703Z,13.10
2018-07-14T11:55:40.861Z,4.50
2018-07-14T11:56:41.050Z,6.60
2018-07-14T11:57:41.227Z,4.60
2018-07-14T11:58:41.411Z,6.00
2018-07-14T11:59:41.601Z,6.00
2018-07-14T12:00:41.775Z,5.10
2018-07-14T12:01:41.946Z,3.60
2018-07-14T12:02:42.431Z,3.00
2018-07-14T12:03:42.318Z,3.40
2018-07-14T12:04:42.487Z,8.20
2018-07-14T12:06:42.841Z,3.20
2018-07-14T12:07:43.010Z,6.40
2018-07-14T12:08:43.218Z,4.70
2018-07-14T12:09:43.382Z,2.40
2018-07-14T12:10:43.573Z,3.30
2018-07-14T12:11:43.765Z,5.70
2018-07-14T12:12:43.964Z,4.70
2018-07-14T12:13:44.137Z,4.20
2018-07-14T12:14:44.295Z,5.80
2018-07-14T12:15:44.493Z,3.00
2018-07-14T12:16:44.656Z,5.70
2018-07-14T12:17:44.847Z,2.70
2018-07-14T12:18:45.021Z,4.60
2018-07-14T12:19:45.215Z,3.60
2018-07-14T12:20:45.387Z,3.80
2018-07-14T12:21:45.591Z,7.90
2018-07-14T12:22:45.766Z,2.90
2018-07-14T12:23:45.949Z,3.00
2018-07-14T12:24:46.143Z,3.40
2018-07-14T12:25:46.320Z,3.80
2018-07-14T12:26:46.587Z,5.90
2018-07-14T12:27:46.665Z,3.40
2018-07-14T12:28:46.934Z,4.60
2018-07-14T12:29:47.089Z,4.70
2018-07-14T12:30:47.282Z,2.60
2018-07-14T12:31:47.495Z,4.90
2018-07-14T12:32:47.669Z,3.30
2018-07-14T12:33:47.838Z,3.20
2018-07-14T12:34:47.996Z,3.30
2018-07-14T12:35:48.170Z,3.50
2018-07-14T12:36:48.424Z,4.80
2018-07-14T12:37:48.553Z,3.00
2018-07-14T12:38:48.730Z,4.60
2018-07-14T12:39:48.935Z,3.40
2018-07-14T12:40:49.101Z,5.30
2018-07-14T12:41:49.276Z,4.00
2018-07-14T12:42:49.463Z,4.80
2018-07-14T12:43:49.637Z,4.60
2018-07-14T12:44:49.810Z,4.40
2018-07-14T12:45:50.028Z,3.50
2018-07-14T12:46:50.172Z,3.40
2018-07-14T12:47:50.336Z,2.90
2018-07-14T12:48:50.532Z,3.90
2018-07-14T12:49:50.720Z,3.40
2018-07-14T12:50:50.908Z,3.70
2018-07-14T12:51:51.110Z,3.80
2018-07-14T12:52:51.261Z,4.20
2018-07-14T12:53:51.489Z,2.90
2018-07-14T12:54:51.619Z,3.70
2018-07-14T12:55:51.803Z,3.00
2018-07-14T12:56:51.987Z,3.10
2018-07-14T12:57:52.291Z,4.40
2018-07-14T12:58:52.389Z,5.30
2018-07-14T12:59:52.542Z,3.90
2018-07-14T13:00:52.749Z,3.10
2018-07-14T13:01:52.886Z,3.10
2018-07-14T13:02:53.094Z,3.40
2018-07-14T13:03:53.258Z,3.30
2018-07-14T13:04:53.433Z,3.30
2018-07-14T13:05:53.612Z,5.70
2018-07-14T13:06:53.780Z,7.30
2018-07-14T13:07:53.971Z,4.90
2018-07-14T13:08:54.156Z,4.00
2018-07-14T13:09:54.340Z,4.60
2018-07-14T13:10:54.537Z,3.80
2018-07-14T13:11:56.933Z,4.30
2018-07-14T13:12:54.915Z,6.20
2018-07-14T13:13:55.117Z,4.70
2018-07-14T13:14:55.295Z,4.20
2018-07-14T13:15:55.483Z,4.00
2018-07-14T13:16:55.673Z,3.50
2018-07-14T13:17:55.861Z,6.50
2018-07-14T13:18:56.053Z,9.90